EGKB/BQH METAR and TAF weather

Enter ICAO airport designator
Station Type Date Time Source
EGKB METAR 2021/02/24 17:50 UTC NOAA

EGKB 241750Z 17011KT CAVOK 11/07 Q1022


Station Type Date Time Source
EGKB Decoded METAR 2021/02/24 17:50 UTC NOAA

Biggin Hill , United Kingdom (EGKB) 51-19N 000-02E
Feb 24, 2021 - 12:50 PM EST / 2021.02.24 1750 UTC
Wind: from the S (170 degrees) at 13 MPH (11 KT):0
Visibility: greater than 7 mile(s):0
Temperature: 51 F (11 C)
Dew Point: 44 F (7 C)
Relative Humidity: 76%
Pressure (altimeter): 30.18 in. Hg (1022 hPa)
ob: EGKB 241750Z 17011KT CAVOK 11/07 Q1022
cycle: 18

Station Type Date Time Source
EGKB TAF 2020/08/09 21:40 UTC NOAA

TAF EGKB 092127Z 0921/1021 CNL

Example: see airport list